« Back
NWS Peachtree City, Ga » Text Product » MCN Terminal Aerodrome Forecast


Printer-friendly Version
Current Version              Previous Versions:   1  2  3  4  5  6  7  8  9  

Terminal Aerodrome Forecast

462
FTUS42 KFFC 221100
TAFMCN
TAF
KMCN 221126Z 2212/2312 28003KT P6SM FEW250
      TEMPO 2212/2213 6SM BR FEW010
     FM221500 29006KT P6SM FEW040
     FM221700 31008KT P6SM SCT050
     FM230100 28004KT P6SM FEW070 SCT250=



USA.gov is the U.S. government's official web portal to all federal, state and local government web resources and services.